sensor_id;sensor_type;location;lat;lon;timestamp;P1;durP1;ratioP1;P2;durP2;ratioP2
18899;SDS011;9582;52.018;6.306;2023-11-21T00:00:40;31.67;;;16.80;;
18899;SDS011;9582;52.018;6.306;2023-11-21T00:03:06;35.50;;;17.17;;
18899;SDS011;9582;52.018;6.306;2023-11-21T00:05:34;31.77;;;16.90;;
18899;SDS011;9582;52.018;6.306;2023-11-21T00:08:01;38.10;;;17.83;;
18899;SDS011;9582;52.018;6.306;2023-11-21T00:10:27;30.93;;;17.20;;
18899;SDS011;9582;52.018;6.306;2023-11-21T00:12:54;36.73;;;17.27;;
18899;SDS011;9582;52.018;6.306;2023-11-21T00:15:21;23.80;;;15.50;;
18899;SDS011;9582;52.018;6.306;2023-11-21T00:17:47;28.13;;;16.33;;
18899;SDS011;9582;52.018;6.306;2023-11-21T00:20:14;23.73;;;14.23;;
18899;SDS011;9582;52.018;6.306;2023-11-21T00:22:42;26.13;;;16.13;;
18899;SDS011;9582;52.018;6.306;2023-11-21T00:25:09;25.47;;;14.90;;
18899;SDS011;9582;52.018;6.306;2023-11-21T00:27:36;32.87;;;16.37;;
18899;SDS011;9582;52.018;6.306;2023-11-21T00:30:03;28.77;;;14.47;;
18899;SDS011;9582;52.018;6.306;2023-11-21T00:32:32;23.50;;;14.37;;
18899;SDS011;9582;52.018;6.306;2023-11-21T00:34:59;34.70;;;17.10;;
18899;SDS011;9582;52.018;6.306;2023-11-21T00:37:27;31.70;;;14.80;;
18899;SDS011;9582;52.018;6.306;2023-11-21T00:39:55;28.73;;;15.37;;
18899;SDS011;9582;52.018;6.306;2023-11-21T00:42:21;30.77;;;17.17;;
18899;SDS011;9582;52.018;6.306;2023-11-21T00:44:48;81.00;;;21.23;;
18899;SDS011;9582;52.018;6.306;2023-11-21T00:47:14;71.27;;;20.10;;
18899;SDS011;9582;52.018;6.306;2023-11-21T00:49:41;32.93;;;17.67;;
18899;SDS011;9582;52.018;6.306;2023-11-21T00:52:09;43.27;;;18.60;;
18899;SDS011;9582;52.018;6.306;2023-11-21T00:54:35;39.63;;;19.33;;
18899;SDS011;9582;52.018;6.306;2023-11-21T00:57:03;41.10;;;18.97;;
18899;SDS011;9582;52.018;6.306;2023-11-21T00:59:30;44.33;;;20.07;;
18899;SDS011;9582;52.018;6.306;2023-11-21T01:01:57;38.77;;;19.43;;
18899;SDS011;9582;52.018;6.306;2023-11-21T01:04:25;42.73;;;20.30;;
18899;SDS011;9582;52.018;6.306;2023-11-21T01:06:53;51.30;;;21.60;;
18899;SDS011;9582;52.018;6.306;2023-11-21T01:09:20;46.13;;;21.43;;
18899;SDS011;9582;52.018;6.306;2023-11-21T01:11:46;46.10;;;22.27;;
18899;SDS011;9582;52.018;6.306;2023-11-21T01:14:14;52.27;;;22.80;;
18899;SDS011;9582;52.018;6.306;2023-11-21T01:16:42;65.63;;;23.83;;
18899;SDS011;9582;52.018;6.306;2023-11-21T01:19:09;52.07;;;22.53;;
18899;SDS011;9582;52.018;6.306;2023-11-21T01:21:35;43.03;;;20.57;;
18899;SDS011;9582;52.018;6.306;2023-11-21T01:24:02;45.43;;;20.23;;
18899;SDS011;9582;52.018;6.306;2023-11-21T01:26:30;49.03;;;21.40;;
18899;SDS011;9582;52.018;6.306;2023-11-21T01:28:56;45.77;;;21.00;;
18899;SDS011;9582;52.018;6.306;2023-11-21T01:31:25;48.67;;;21.53;;
18899;SDS011;9582;52.018;6.306;2023-11-21T01:33:54;46.87;;;22.20;;
18899;SDS011;9582;52.018;6.306;2023-11-21T01:36:21;57.50;;;22.47;;
18899;SDS011;9582;52.018;6.306;2023-11-21T01:38:47;49.80;;;22.60;;
18899;SDS011;9582;52.018;6.306;2023-11-21T01:41:15;45.83;;;22.43;;
18899;SDS011;9582;52.018;6.306;2023-11-21T01:43:42;68.03;;;25.17;;
18899;SDS011;9582;52.018;6.306;2023-11-21T01:46:08;55.87;;;23.60;;
18899;SDS011;9582;52.018;6.306;2023-11-21T01:48:37;64.43;;;25.30;;
18899;SDS011;9582;52.018;6.306;2023-11-21T01:51:04;62.70;;;24.97;;
18899;SDS011;9582;52.018;6.306;2023-11-21T01:53:31;53.37;;;23.93;;
18899;SDS011;9582;52.018;6.306;2023-11-21T01:55:58;57.13;;;25.93;;
18899;SDS011;9582;52.018;6.306;2023-11-21T01:58:25;65.37;;;26.20;;
18899;SDS011;9582;52.018;6.306;2023-11-21T02:00:52;55.07;;;24.07;;
18899;SDS011;9582;52.018;6.306;2023-11-21T02:03:20;53.17;;;25.73;;
18899;SDS011;9582;52.018;6.306;2023-11-21T02:05:49;45.33;;;23.20;;
18899;SDS011;9582;52.018;6.306;2023-11-21T02:08:15;53.30;;;24.07;;
18899;SDS011;9582;52.018;6.306;2023-11-21T02:10:42;48.27;;;22.97;;
18899;SDS011;9582;52.018;6.306;2023-11-21T02:13:09;71.70;;;26.10;;
18899;SDS011;9582;52.018;6.306;2023-11-21T02:15:36;48.23;;;22.50;;
18899;SDS011;9582;52.018;6.306;2023-11-21T02:18:03;86.50;;;27.00;;
18899;SDS011;9582;52.018;6.306;2023-11-21T02:20:31;102.33;;;26.70;;
18899;SDS011;9582;52.018;6.306;2023-11-21T02:23:01;78.63;;;26.07;;
18899;SDS011;9582;52.018;6.306;2023-11-21T02:25:28;56.77;;;24.77;;
18899;SDS011;9582;52.018;6.306;2023-11-21T02:27:55;63.57;;;24.47;;
18899;SDS011;9582;52.018;6.306;2023-11-21T02:30:23;52.87;;;22.53;;
18899;SDS011;9582;52.018;6.306;2023-11-21T02:32:51;57.47;;;24.17;;
18899;SDS011;9582;52.018;6.306;2023-11-21T02:35:18;53.23;;;22.40;;
18899;SDS011;9582;52.018;6.306;2023-11-21T02:37:46;59.60;;;24.57;;
18899;SDS011;9582;52.018;6.306;2023-11-21T02:40:14;56.67;;;23.37;;
18899;SDS011;9582;52.018;6.306;2023-11-21T02:42:42;56.63;;;24.70;;
18899;SDS011;9582;52.018;6.306;2023-11-21T02:45:10;49.53;;;24.03;;
18899;SDS011;9582;52.018;6.306;2023-11-21T02:47:38;77.23;;;26.77;;
18899;SDS011;9582;52.018;6.306;2023-11-21T02:50:04;57.13;;;25.60;;
18899;SDS011;9582;52.018;6.306;2023-11-21T02:52:33;84.93;;;28.07;;
18899;SDS011;9582;52.018;6.306;2023-11-21T02:55:00;73.90;;;27.73;;
18899;SDS011;9582;52.018;6.306;2023-11-21T02:57:28;63.57;;;26.93;;
18899;SDS011;9582;52.018;6.306;2023-11-21T02:59:54;62.50;;;26.57;;
18899;SDS011;9582;52.018;6.306;2023-11-21T03:02:21;67.53;;;27.13;;
18899;SDS011;9582;52.018;6.306;2023-11-21T03:04:48;71.73;;;26.77;;
18899;SDS011;9582;52.018;6.306;2023-11-21T03:07:15;72.53;;;27.73;;
18899;SDS011;9582;52.018;6.306;2023-11-21T03:09:41;75.13;;;28.10;;
18899;SDS011;9582;52.018;6.306;2023-11-21T03:12:09;63.93;;;26.43;;
18899;SDS011;9582;52.018;6.306;2023-11-21T03:14:38;106.80;;;30.13;;
18899;SDS011;9582;52.018;6.306;2023-11-21T03:17:04;86.37;;;28.80;;
18899;SDS011;9582;52.018;6.306;2023-11-21T03:19:31;74.77;;;28.80;;
18899;SDS011;9582;52.018;6.306;2023-11-21T03:21:58;99.03;;;30.90;;
18899;SDS011;9582;52.018;6.306;2023-11-21T03:24:24;105.83;;;31.10;;
18899;SDS011;9582;52.018;6.306;2023-11-21T03:26:51;74.30;;;28.50;;
18899;SDS011;9582;52.018;6.306;2023-11-21T03:29:18;75.53;;;29.57;;
18899;SDS011;9582;52.018;6.306;2023-11-21T03:31:46;108.47;;;31.70;;
18899;SDS011;9582;52.018;6.306;2023-11-21T03:34:14;81.73;;;29.03;;
18899;SDS011;9582;52.018;6.306;2023-11-21T03:36:43;121.60;;;32.33;;
18899;SDS011;9582;52.018;6.306;2023-11-21T03:39:11;94.27;;;30.10;;
18899;SDS011;9582;52.018;6.306;2023-11-21T03:41:38;139.93;;;32.93;;
18899;SDS011;9582;52.018;6.306;2023-11-21T03:44:04;187.23;;;36.80;;
18899;SDS011;9582;52.018;6.306;2023-11-21T03:46:31;196.57;;;36.13;;
18899;SDS011;9582;52.018;6.306;2023-11-21T03:48:59;213.20;;;39.33;;
18899;SDS011;9582;52.018;6.306;2023-11-21T03:51:25;179.53;;;36.63;;
18899;SDS011;9582;52.018;6.306;2023-11-21T03:53:52;258.67;;;39.83;;
18899;SDS011;9582;52.018;6.306;2023-11-21T03:56:19;324.20;;;45.40;;
18899;SDS011;9582;52.018;6.306;2023-11-21T03:58:46;315.50;;;45.37;;
18899;SDS011;9582;52.018;6.306;2023-11-21T04:01:18;181.97;;;38.30;;
18899;SDS011;9582;52.018;6.306;2023-11-21T04:03:46;267.87;;;41.77;;
18899;SDS011;9582;52.018;6.306;2023-11-21T04:06:14;362.73;;;48.87;;
18899;SDS011;9582;52.018;6.306;2023-11-21T04:08:42;255.30;;;41.57;;
18899;SDS011;9582;52.018;6.306;2023-11-21T04:11:09;107.60;;;31.13;;
18899;SDS011;9582;52.018;6.306;2023-11-21T04:13:36;145.63;;;33.90;;
18899;SDS011;9582;52.018;6.306;2023-11-21T04:16:03;152.53;;;34.37;;
18899;SDS011;9582;52.018;6.306;2023-11-21T04:18:31;110.57;;;33.07;;
18899;SDS011;9582;52.018;6.306;2023-11-21T04:20:57;147.73;;;35.07;;
18899;SDS011;9582;52.018;6.306;2023-11-21T04:23:25;316.10;;;44.23;;
18899;SDS011;9582;52.018;6.306;2023-11-21T04:25:52;151.27;;;34.30;;
18899;SDS011;9582;52.018;6.306;2023-11-21T04:28:21;143.50;;;34.77;;
18899;SDS011;9582;52.018;6.306;2023-11-21T04:30:47;137.53;;;34.63;;
18899;SDS011;9582;52.018;6.306;2023-11-21T04:33:14;125.67;;;33.57;;
18899;SDS011;9582;52.018;6.306;2023-11-21T04:35:40;332.27;;;47.17;;
18899;SDS011;9582;52.018;6.306;2023-11-21T04:38:07;204.53;;;39.03;;
18899;SDS011;9582;52.018;6.306;2023-11-21T04:40:34;148.03;;;36.30;;
18899;SDS011;9582;52.018;6.306;2023-11-21T04:43:01;149.83;;;37.70;;
18899;SDS011;9582;52.018;6.306;2023-11-21T04:45:29;161.17;;;36.70;;
18899;SDS011;9582;52.018;6.306;2023-11-21T04:47:55;339.73;;;46.10;;
18899;SDS011;9582;52.018;6.306;2023-11-21T04:50:22;187.83;;;38.87;;
18899;SDS011;9582;52.018;6.306;2023-11-21T04:52:48;179.57;;;37.43;;
18899;SDS011;9582;52.018;6.306;2023-11-21T04:55:15;217.27;;;40.77;;
18899;SDS011;9582;52.018;6.306;2023-11-21T04:57:42;172.33;;;37.57;;
18899;SDS011;9582;52.018;6.306;2023-11-21T05:00:10;159.30;;;36.93;;
18899;SDS011;9582;52.018;6.306;2023-11-21T05:02:38;146.00;;;36.70;;
18899;SDS011;9582;52.018;6.306;2023-11-21T05:05:04;140.70;;;34.23;;
18899;SDS011;9582;52.018;6.306;2023-11-21T05:07:32;157.50;;;38.00;;
18899;SDS011;9582;52.018;6.306;2023-11-21T05:10:00;165.80;;;38.27;;
18899;SDS011;9582;52.018;6.306;2023-11-21T05:12:30;175.60;;;39.00;;
18899;SDS011;9582;52.018;6.306;2023-11-21T05:14:59;166.73;;;38.20;;
18899;SDS011;9582;52.018;6.306;2023-11-21T05:17:26;130.27;;;34.73;;
18899;SDS011;9582;52.018;6.306;2023-11-21T05:19:52;154.40;;;35.27;;
18899;SDS011;9582;52.018;6.306;2023-11-21T05:22:19;131.40;;;35.87;;
18899;SDS011;9582;52.018;6.306;2023-11-21T05:24:46;211.87;;;39.93;;
18899;SDS011;9582;52.018;6.306;2023-11-21T05:27:12;182.03;;;38.83;;
18899;SDS011;9582;52.018;6.306;2023-11-21T05:29:39;151.40;;;37.67;;
18899;SDS011;9582;52.018;6.306;2023-11-21T05:32:07;159.87;;;38.07;;
18899;SDS011;9582;52.018;6.306;2023-11-21T05:34:34;162.33;;;36.67;;
18899;SDS011;9582;52.018;6.306;2023-11-21T05:37:00;206.17;;;39.57;;
18899;SDS011;9582;52.018;6.306;2023-11-21T05:39:27;175.17;;;36.73;;
18899;SDS011;9582;52.018;6.306;2023-11-21T05:41:53;148.33;;;35.40;;
18899;SDS011;9582;52.018;6.306;2023-11-21T05:44:20;139.33;;;34.63;;
18899;SDS011;9582;52.018;6.306;2023-11-21T05:46:46;124.00;;;34.23;;
18899;SDS011;9582;52.018;6.306;2023-11-21T05:49:14;134.13;;;34.80;;
18899;SDS011;9582;52.018;6.306;2023-11-21T05:51:41;111.10;;;31.93;;
18899;SDS011;9582;52.018;6.306;2023-11-21T05:54:08;95.47;;;31.03;;
18899;SDS011;9582;52.018;6.306;2023-11-21T05:56:34;101.53;;;32.60;;
18899;SDS011;9582;52.018;6.306;2023-11-21T05:59:01;104.33;;;33.23;;
18899;SDS011;9582;52.018;6.306;2023-11-21T06:01:28;94.87;;;31.03;;
18899;SDS011;9582;52.018;6.306;2023-11-21T06:03:54;86.27;;;30.57;;
18899;SDS011;9582;52.018;6.306;2023-11-21T06:06:22;107.40;;;30.93;;
18899;SDS011;9582;52.018;6.306;2023-11-21T06:08:49;74.00;;;27.63;;
18899;SDS011;9582;52.018;6.306;2023-11-21T06:11:16;103.93;;;30.53;;
18899;SDS011;9582;52.018;6.306;2023-11-21T06:13:43;89.27;;;29.90;;
18899;SDS011;9582;52.018;6.306;2023-11-21T06:16:10;126.27;;;31.37;;
18899;SDS011;9582;52.018;6.306;2023-11-21T06:18:38;92.07;;;29.83;;
18899;SDS011;9582;52.018;6.306;2023-11-21T06:21:05;87.17;;;27.93;;
18899;SDS011;9582;52.018;6.306;2023-11-21T06:23:33;76.47;;;27.57;;
18899;SDS011;9582;52.018;6.306;2023-11-21T06:26:00;91.57;;;28.57;;
18899;SDS011;9582;52.018;6.306;2023-11-21T06:28:26;81.27;;;28.10;;
18899;SDS011;9582;52.018;6.306;2023-11-21T06:30:53;90.30;;;27.67;;
18899;SDS011;9582;52.018;6.306;2023-11-21T06:33:19;68.07;;;26.17;;
18899;SDS011;9582;52.018;6.306;2023-11-21T06:35:47;74.47;;;26.50;;
18899;SDS011;9582;52.018;6.306;2023-11-21T06:38:13;115.47;;;30.57;;
18899;SDS011;9582;52.018;6.306;2023-11-21T06:40:41;143.33;;;31.30;;
18899;SDS011;9582;52.018;6.306;2023-11-21T06:43:07;54.73;;;25.07;;
18899;SDS011;9582;52.018;6.306;2023-11-21T06:45:34;108.57;;;29.73;;
18899;SDS011;9582;52.018;6.306;2023-11-21T06:48:00;94.27;;;29.60;;
18899;SDS011;9582;52.018;6.306;2023-11-21T06:50:27;104.67;;;28.50;;
18899;SDS011;9582;52.018;6.306;2023-11-21T06:52:53;116.97;;;28.50;;
18899;SDS011;9582;52.018;6.306;2023-11-21T06:55:20;95.00;;;28.60;;
18899;SDS011;9582;52.018;6.306;2023-11-21T06:57:48;88.27;;;26.07;;
18899;SDS011;9582;52.018;6.306;2023-11-21T07:00:15;72.00;;;25.50;;
18899;SDS011;9582;52.018;6.306;2023-11-21T07:02:43;122.57;;;29.73;;
18899;SDS011;9582;52.018;6.306;2023-11-21T07:05:09;83.50;;;27.93;;
18899;SDS011;9582;52.018;6.306;2023-11-21T07:07:36;156.87;;;32.67;;
18899;SDS011;9582;52.018;6.306;2023-11-21T07:10:04;93.40;;;27.57;;
18899;SDS011;9582;52.018;6.306;2023-11-21T07:12:31;134.57;;;30.80;;
18899;SDS011;9582;52.018;6.306;2023-11-21T07:14:59;129.43;;;30.30;;
18899;SDS011;9582;52.018;6.306;2023-11-21T07:17:26;132.40;;;30.40;;
18899;SDS011;9582;52.018;6.306;2023-11-21T07:19:53;67.90;;;25.10;;
18899;SDS011;9582;52.018;6.306;2023-11-21T07:22:20;76.07;;;25.73;;
18899;SDS011;9582;52.018;6.306;2023-11-21T07:24:48;79.00;;;26.57;;
18899;SDS011;9582;52.018;6.306;2023-11-21T07:27:15;80.23;;;25.73;;
18899;SDS011;9582;52.018;6.306;2023-11-21T07:29:41;76.77;;;25.70;;
18899;SDS011;9582;52.018;6.306;2023-11-21T07:32:09;84.27;;;27.07;;
18899;SDS011;9582;52.018;6.306;2023-11-21T07:34:36;70.63;;;25.17;;
18899;SDS011;9582;52.018;6.306;2023-11-21T07:37:02;93.23;;;27.73;;
18899;SDS011;9582;52.018;6.306;2023-11-21T07:39:29;88.40;;;26.17;;
18899;SDS011;9582;52.018;6.306;2023-11-21T07:41:55;93.07;;;27.40;;
18899;SDS011;9582;52.018;6.306;2023-11-21T07:44:23;78.67;;;26.77;;
18899;SDS011;9582;52.018;6.306;2023-11-21T07:46:49;156.63;;;32.27;;
18899;SDS011;9582;52.018;6.306;2023-11-21T07:49:17;105.40;;;28.57;;
18899;SDS011;9582;52.018;6.306;2023-11-21T07:51:46;99.87;;;28.20;;
18899;SDS011;9582;52.018;6.306;2023-11-21T07:54:12;91.20;;;28.37;;
18899;SDS011;9582;52.018;6.306;2023-11-21T07:56:39;114.03;;;30.93;;
18899;SDS011;9582;52.018;6.306;2023-11-21T07:59:05;76.33;;;26.53;;
18899;SDS011;9582;52.018;6.306;2023-11-21T08:01:32;84.73;;;27.57;;
18899;SDS011;9582;52.018;6.306;2023-11-21T08:03:58;63.63;;;25.87;;
18899;SDS011;9582;52.018;6.306;2023-11-21T08:06:29;93.47;;;27.63;;
18899;SDS011;9582;52.018;6.306;2023-11-21T08:08:57;95.80;;;27.77;;
18899;SDS011;9582;52.018;6.306;2023-11-21T08:11:23;80.40;;;26.77;;
18899;SDS011;9582;52.018;6.306;2023-11-21T08:13:51;70.90;;;26.67;;
18899;SDS011;9582;52.018;6.306;2023-11-21T08:16:18;84.73;;;26.87;;
18899;SDS011;9582;52.018;6.306;2023-11-21T08:18:45;97.40;;;28.57;;
18899;SDS011;9582;52.018;6.306;2023-11-21T08:21:12;91.03;;;28.83;;
18899;SDS011;9582;52.018;6.306;2023-11-21T08:23:40;86.27;;;27.30;;
18899;SDS011;9582;52.018;6.306;2023-11-21T08:26:06;91.40;;;29.13;;
18899;SDS011;9582;52.018;6.306;2023-11-21T08:28:34;80.83;;;27.83;;
18899;SDS011;9582;52.018;6.306;2023-11-21T08:31:00;75.13;;;26.93;;
18899;SDS011;9582;52.018;6.306;2023-11-21T08:33:27;75.97;;;26.77;;
18899;SDS011;9582;52.018;6.306;2023-11-21T08:35:53;73.73;;;26.03;;
18899;SDS011;9582;52.018;6.306;2023-11-21T08:38:20;71.80;;;26.97;;
18899;SDS011;9582;52.018;6.306;2023-11-21T08:40:48;82.53;;;27.63;;
18899;SDS011;9582;52.018;6.306;2023-11-21T08:43:14;67.73;;;26.57;;
18899;SDS011;9582;52.018;6.306;2023-11-21T08:45:41;59.67;;;23.87;;
18899;SDS011;9582;52.018;6.306;2023-11-21T08:48:08;70.50;;;26.53;;
18899;SDS011;9582;52.018;6.306;2023-11-21T08:50:36;67.97;;;26.60;;
18899;SDS011;9582;52.018;6.306;2023-11-21T08:53:03;63.60;;;25.77;;
18899;SDS011;9582;52.018;6.306;2023-11-21T08:55:30;74.73;;;27.13;;
18899;SDS011;9582;52.018;6.306;2023-11-21T08:58:03;66.90;;;27.70;;
18899;SDS011;9582;52.018;6.306;2023-11-21T09:00:32;58.47;;;26.60;;
18899;SDS011;9582;52.018;6.306;2023-11-21T09:02:58;62.50;;;25.93;;
18899;SDS011;9582;52.018;6.306;2023-11-21T09:05:25;63.13;;;25.20;;
18899;SDS011;9582;52.018;6.306;2023-11-21T09:07:51;54.63;;;23.97;;
18899;SDS011;9582;52.018;6.306;2023-11-21T09:10:18;63.27;;;26.67;;
18899;SDS011;9582;52.018;6.306;2023-11-21T09:12:45;71.43;;;27.07;;
18899;SDS011;9582;52.018;6.306;2023-11-21T09:15:13;59.87;;;25.87;;
18899;SDS011;9582;52.018;6.306;2023-11-21T09:17:40;43.97;;;20.70;;
18899;SDS011;9582;52.018;6.306;2023-11-21T09:20:07;60.77;;;26.40;;
18899;SDS011;9582;52.018;6.306;2023-11-21T09:22:35;57.60;;;25.43;;
18899;SDS011;9582;52.018;6.306;2023-11-21T09:25:00;65.17;;;27.27;;
18899;SDS011;9582;52.018;6.306;2023-11-21T09:27:30;51.37;;;24.17;;
18899;SDS011;9582;52.018;6.306;2023-11-21T09:29:56;56.60;;;25.67;;
18899;SDS011;9582;52.018;6.306;2023-11-21T09:32:24;55.53;;;23.83;;
18899;SDS011;9582;52.018;6.306;2023-11-21T09:34:51;50.93;;;24.77;;
18899;SDS011;9582;52.018;6.306;2023-11-21T09:37:19;51.53;;;24.90;;
18899;SDS011;9582;52.018;6.306;2023-11-21T09:39:45;51.17;;;24.03;;
18899;SDS011;9582;52.018;6.306;2023-11-21T09:42:13;46.97;;;22.50;;
18899;SDS011;9582;52.018;6.306;2023-11-21T09:44:45;41.80;;;21.60;;
18899;SDS011;9582;52.018;6.306;2023-11-21T09:47:14;40.07;;;21.80;;
18899;SDS011;9582;52.018;6.306;2023-11-21T09:49:43;43.10;;;22.43;;
18899;SDS011;9582;52.018;6.306;2023-11-21T09:52:14;40.33;;;20.23;;
18899;SDS011;9582;52.018;6.306;2023-11-21T09:54:48;35.20;;;20.20;;
18899;SDS011;9582;52.018;6.306;2023-11-21T09:57:16;35.53;;;20.30;;
18899;SDS011;9582;52.018;6.306;2023-11-21T09:59:44;42.27;;;20.93;;
18899;SDS011;9582;52.018;6.306;2023-11-21T10:02:13;42.60;;;21.00;;
18899;SDS011;9582;52.018;6.306;2023-11-21T10:04:44;41.67;;;21.07;;
18899;SDS011;9582;52.018;6.306;2023-11-21T10:07:12;38.93;;;21.30;;
18899;SDS011;9582;52.018;6.306;2023-11-21T10:09:40;43.43;;;20.77;;
18899;SDS011;9582;52.018;6.306;2023-11-21T10:12:08;40.50;;;21.03;;
18899;SDS011;9582;52.018;6.306;2023-11-21T10:14:37;43.87;;;21.60;;
18899;SDS011;9582;52.018;6.306;2023-11-21T10:17:07;44.50;;;21.70;;
18899;SDS011;9582;52.018;6.306;2023-11-21T10:19:37;46.20;;;22.07;;
18899;SDS011;9582;52.018;6.306;2023-11-21T10:22:06;37.20;;;20.23;;
18899;SDS011;9582;52.018;6.306;2023-11-21T10:24:34;34.03;;;18.33;;
18899;SDS011;9582;52.018;6.306;2023-11-21T10:27:00;43.13;;;20.47;;
18899;SDS011;9582;52.018;6.306;2023-11-21T10:29:28;34.93;;;18.03;;
18899;SDS011;9582;52.018;6.306;2023-11-21T10:31:55;40.80;;;21.27;;
18899;SDS011;9582;52.018;6.306;2023-11-21T10:34:23;36.87;;;19.47;;
18899;SDS011;9582;52.018;6.306;2023-11-21T10:36:52;36.10;;;18.60;;
18899;SDS011;9582;52.018;6.306;2023-11-21T10:39:23;40.90;;;20.53;;
18899;SDS011;9582;52.018;6.306;2023-11-21T10:41:54;41.37;;;20.40;;
18899;SDS011;9582;52.018;6.306;2023-11-21T10:44:21;40.20;;;19.03;;
18899;SDS011;9582;52.018;6.306;2023-11-21T10:46:49;39.43;;;19.30;;
18899;SDS011;9582;52.018;6.306;2023-11-21T10:49:19;35.73;;;18.90;;
18899;SDS011;9582;52.018;6.306;2023-11-21T10:51:46;38.67;;;17.23;;
18899;SDS011;9582;52.018;6.306;2023-11-21T10:54:16;35.33;;;16.40;;
18899;SDS011;9582;52.018;6.306;2023-11-21T10:56:45;32.40;;;15.90;;
18899;SDS011;9582;52.018;6.306;2023-11-21T10:59:12;41.87;;;17.17;;
18899;SDS011;9582;52.018;6.306;2023-11-21T11:01:40;42.57;;;18.27;;
18899;SDS011;9582;52.018;6.306;2023-11-21T11:04:09;27.67;;;14.03;;
18899;SDS011;9582;52.018;6.306;2023-11-21T11:06:41;33.87;;;16.13;;
18899;SDS011;9582;52.018;6.306;2023-11-21T11:09:09;36.00;;;16.03;;
18899;SDS011;9582;52.018;6.306;2023-11-21T11:11:38;32.23;;;16.10;;
18899;SDS011;9582;52.018;6.306;2023-11-21T11:14:07;31.70;;;16.13;;
18899;SDS011;9582;52.018;6.306;2023-11-21T11:16:36;28.60;;;14.33;;
18899;SDS011;9582;52.018;6.306;2023-11-21T11:19:06;30.60;;;15.40;;
18899;SDS011;9582;52.018;6.306;2023-11-21T11:21:37;27.63;;;13.33;;
18899;SDS011;9582;52.018;6.306;2023-11-21T11:24:18;27.17;;;13.83;;
18899;SDS011;9582;52.018;6.306;2023-11-21T11:27:05;24.03;;;13.23;;
18899;SDS011;9582;52.018;6.306;2023-11-21T11:29:41;26.27;;;13.77;;
18899;SDS011;9582;52.018;6.306;2023-11-21T11:32:16;20.80;;;11.47;;
18899;SDS011;9582;52.018;6.306;2023-11-21T11:34:53;20.40;;;11.50;;
18899;SDS011;9582;52.018;6.306;2023-11-21T11:37:27;22.13;;;12.13;;
18899;SDS011;9582;52.018;6.306;2023-11-21T11:39:53;21.97;;;12.53;;
18899;SDS011;9582;52.018;6.306;2023-11-21T11:42:22;21.00;;;12.30;;
18899;SDS011;9582;52.018;6.306;2023-11-21T11:44:53;24.40;;;14.27;;
18899;SDS011;9582;52.018;6.306;2023-11-21T11:47:20;23.17;;;15.23;;
18899;SDS011;9582;52.018;6.306;2023-11-21T11:50:02;24.40;;;14.53;;
18899;SDS011;9582;52.018;6.306;2023-11-21T11:52:35;26.90;;;15.40;;
18899;SDS011;9582;52.018;6.306;2023-11-21T11:55:06;23.93;;;14.63;;
18899;SDS011;9582;52.018;6.306;2023-11-21T11:57:35;30.53;;;16.67;;
18899;SDS011;9582;52.018;6.306;2023-11-21T12:00:14;28.53;;;15.37;;
18899;SDS011;9582;52.018;6.306;2023-11-21T12:02:44;25.93;;;13.63;;
18899;SDS011;9582;52.018;6.306;2023-11-21T12:05:13;25.87;;;15.07;;
18899;SDS011;9582;52.018;6.306;2023-11-21T12:07:47;24.93;;;14.87;;
18899;SDS011;9582;52.018;6.306;2023-11-21T12:10:15;27.80;;;17.00;;
18899;SDS011;9582;52.018;6.306;2023-11-21T12:12:44;27.97;;;16.47;;
18899;SDS011;9582;52.018;6.306;2023-11-21T12:15:14;31.23;;;16.83;;
18899;SDS011;9582;52.018;6.306;2023-11-21T12:17:41;26.87;;;15.20;;
18899;SDS011;9582;52.018;6.306;2023-11-21T12:20:09;34.05;;;21.42;;
18899;SDS011;9582;52.018;6.306;2023-11-21T12:22:43;32.80;;;17.33;;
18899;SDS011;9582;52.018;6.306;2023-11-21T12:25:12;28.53;;;17.17;;
18899;SDS011;9582;52.018;6.306;2023-11-21T12:27:41;28.77;;;16.13;;
18899;SDS011;9582;52.018;6.306;2023-11-21T12:30:10;25.47;;;12.27;;
18899;SDS011;9582;52.018;6.306;2023-11-21T12:32:42;27.83;;;15.30;;
18899;SDS011;9582;52.018;6.306;2023-11-21T12:35:11;26.10;;;14.93;;
18899;SDS011;9582;52.018;6.306;2023-11-21T12:37:38;25.70;;;15.07;;
18899;SDS011;9582;52.018;6.306;2023-11-21T12:40:08;27.47;;;14.30;;
18899;SDS011;9582;52.018;6.306;2023-11-21T12:42:37;26.50;;;14.57;;
18899;SDS011;9582;52.018;6.306;2023-11-21T12:45:08;26.10;;;14.60;;
18899;SDS011;9582;52.018;6.306;2023-11-21T12:47:42;26.67;;;15.07;;
18899;SDS011;9582;52.018;6.306;2023-11-21T12:50:10;23.83;;;14.43;;
18899;SDS011;9582;52.018;6.306;2023-11-21T12:52:40;24.93;;;15.37;;
18899;SDS011;9582;52.018;6.306;2023-11-21T12:55:09;24.67;;;14.23;;
18899;SDS011;9582;52.018;6.306;2023-11-21T12:57:40;28.30;;;16.30;;
18899;SDS011;9582;52.018;6.306;2023-11-21T13:00:09;29.93;;;15.70;;
18899;SDS011;9582;52.018;6.306;2023-11-21T13:02:42;30.00;;;14.30;;
18899;SDS011;9582;52.018;6.306;2023-11-21T13:05:08;28.40;;;15.53;;
18899;SDS011;9582;52.018;6.306;2023-11-21T13:07:43;28.47;;;14.97;;
18899;SDS011;9582;52.018;6.306;2023-11-21T13:10:12;28.90;;;15.57;;
18899;SDS011;9582;52.018;6.306;2023-11-21T13:12:42;28.30;;;14.87;;
18899;SDS011;9582;52.018;6.306;2023-11-21T13:15:09;32.53;;;15.60;;
18899;SDS011;9582;52.018;6.306;2023-11-21T13:17:37;25.13;;;14.63;;
18899;SDS011;9582;52.018;6.306;2023-11-21T13:20:05;29.87;;;15.60;;
18899;SDS011;9582;52.018;6.306;2023-11-21T13:22:35;29.10;;;14.80;;
18899;SDS011;9582;52.018;6.306;2023-11-21T13:25:01;23.90;;;12.17;;
18899;SDS011;9582;52.018;6.306;2023-11-21T13:27:32;16.83;;;9.27;;
18899;SDS011;9582;52.018;6.306;2023-11-21T13:29:59;22.17;;;10.53;;
18899;SDS011;9582;52.018;6.306;2023-11-21T13:32:26;18.83;;;10.57;;
18899;SDS011;9582;52.018;6.306;2023-11-21T13:34:52;21.63;;;10.70;;
18899;SDS011;9582;52.018;6.306;2023-11-21T13:37:20;23.70;;;10.53;;
18899;SDS011;9582;52.018;6.306;2023-11-21T13:39:47;21.33;;;10.70;;
18899;SDS011;9582;52.018;6.306;2023-11-21T13:42:15;16.23;;;8.90;;
18899;SDS011;9582;52.018;6.306;2023-11-21T13:44:41;22.47;;;11.43;;
18899;SDS011;9582;52.018;6.306;2023-11-21T13:47:11;17.80;;;10.13;;
18899;SDS011;9582;52.018;6.306;2023-11-21T13:49:38;25.03;;;12.03;;
18899;SDS011;9582;52.018;6.306;2023-11-21T13:52:06;19.07;;;9.17;;
18899;SDS011;9582;52.018;6.306;2023-11-21T13:54:34;25.07;;;11.90;;
18899;SDS011;9582;52.018;6.306;2023-11-21T13:57:00;23.47;;;12.47;;
18899;SDS011;9582;52.018;6.306;2023-11-21T13:59:28;25.63;;;11.83;;
18899;SDS011;9582;52.018;6.306;2023-11-21T14:01:56;23.87;;;11.20;;
18899;SDS011;9582;52.018;6.306;2023-11-21T14:04:25;20.30;;;10.77;;
18899;SDS011;9582;52.018;6.306;2023-11-21T14:07:11;20.63;;;11.77;;
18899;SDS011;9582;52.018;6.306;2023-11-21T14:09:49;19.30;;;10.73;;
18899;SDS011;9582;52.018;6.306;2023-11-21T14:12:15;19.07;;;10.60;;
18899;SDS011;9582;52.018;6.306;2023-11-21T14:14:42;17.97;;;10.60;;
18899;SDS011;9582;52.018;6.306;2023-11-21T14:17:09;21.93;;;10.53;;
18899;SDS011;9582;52.018;6.306;2023-11-21T14:19:35;21.03;;;11.30;;
18899;SDS011;9582;52.018;6.306;2023-11-21T14:22:05;18.10;;;9.20;;
18899;SDS011;9582;52.018;6.306;2023-11-21T14:24:32;16.30;;;9.70;;
18899;SDS011;9582;52.018;6.306;2023-11-21T14:27:00;15.60;;;9.37;;
18899;SDS011;9582;52.018;6.306;2023-11-21T14:29:27;18.77;;;10.10;;
18899;SDS011;9582;52.018;6.306;2023-11-21T14:31:54;16.57;;;9.50;;
18899;SDS011;9582;52.018;6.306;2023-11-21T14:34:22;15.83;;;9.50;;